Time;durP1;ratioP1;P1;durP2;ratioP2;P2;SDS_P1;SDS_P2;PMS_P1;PMS_P2;Temp;Humidity;BMP_temperature;BMP_pressure;BME280_temperature;BME280_humidity;BME280_pressure;Samples;Min_cycle;Max_cycle;Signal;HPM_P1;HPM_P2
2023/09/25 00:00:01;;;;;;;1.30;1.20;;;;;;;12.26;nan;100088.78;5039282;28;20214;-76
2023/09/25 00:02:33;;;;;;;1.55;1.42;;;;;;;12.29;nan;100093.03;5041598;28;20233;-76
2023/09/25 00:04:58;;;;;;;4.10;1.70;;;;;;;12.30;nan;100090.28;5037624;28;20201;-76
2023/09/25 00:07:23;;;;;;;2.47;1.57;;;;;;;12.32;nan;100091.03;5034371;28;20192;-76
2023/09/25 00:09:49;;;;;;;3.37;1.70;;;;;;;12.32;nan;100092.84;5037876;28;20805;-76
2023/09/25 00:12:14;;;;;;;1.77;1.43;;;;;;;12.28;nan;100092.16;5036318;28;20198;-76
2023/09/25 00:14:40;;;;;;;2.63;1.50;;;;;;;12.25;nan;100099.41;5030985;28;20254;-76
2023/09/25 00:17:05;;;;;;;1.60;1.50;;;;;;;12.17;nan;100099.91;5034978;28;20570;-76
2023/09/25 00:19:31;;;;;;;3.63;1.47;;;;;;;12.10;nan;100093.34;5040753;28;20216;-76
2023/09/25 00:21:57;;;;;;;1.40;1.30;;;;;;;12.03;nan;100103.38;5037079;28;20189;-76
2023/09/25 00:24:22;;;;;;;2.27;1.70;;;;;;;11.95;nan;100095.94;5037521;28;20224;-75
2023/09/25 00:26:48;;;;;;;4.80;1.50;;;;;;;11.88;nan;100105.19;5037055;28;20263;-75
2023/09/25 00:29:14;;;;;;;1.48;1.38;;;;;;;11.78;nan;100108.44;5034205;28;20244;-76
2023/09/25 00:31:39;;;;;;;1.40;1.30;;;;;;;11.71;nan;100114.06;5033501;28;20284;-75
2023/09/25 00:34:05;;;;;;;2.80;1.20;;;;;;;11.65;nan;100103.06;5034309;28;20194;-75
2023/09/25 00:36:30;;;;;;;2.47;1.80;;;;;;;11.60;nan;100111.22;5039519;28;20210;-76
2023/09/25 00:38:55;;;;;;;1.67;1.30;;;;;;;11.62;nan;100113.78;5035223;28;20212;-76
2023/09/25 00:41:21;;;;;;;1.50;1.37;;;;;;;11.64;nan;100120.63;5018340;28;20212;-76
2023/09/25 00:43:46;;;;;;;3.00;1.70;;;;;;;11.65;nan;100111.78;5035487;28;20194;-76
2023/09/25 00:46:12;;;;;;;1.30;1.10;;;;;;;11.67;nan;100115.19;5020289;28;20212;-76
2023/09/25 00:48:42;;;;;;;2.30;1.30;;;;;;;11.63;nan;100111.03;5014442;28;20194;-76
2023/09/25 00:51:08;;;;;;;1.98;1.23;;;;;;;11.56;nan;100100.97;5023008;28;20260;-76
2023/09/25 00:53:34;;;;;;;2.35;1.60;;;;;;;11.46;nan;100105.94;5043053;28;20218;-75
2023/09/25 00:56:00;;;;;;;1.63;1.53;;;;;;;11.43;nan;100103.50;5036911;28;20197;-75
2023/09/25 00:58:26;;;;;;;2.30;1.40;;;;;;;11.41;nan;100105.38;5035806;28;20511;-76
2023/09/25 01:00:52;;;;;;;2.60;1.60;;;;;;;11.39;nan;100107.22;5037497;28;20201;-76
2023/09/25 01:03:18;;;;;;;2.30;1.70;;;;;;;11.38;nan;100105.56;5038241;28;20705;-76
2023/09/25 01:05:44;;;;;;;1.50;1.40;;;;;;;11.34;nan;100107.53;5040182;28;20420;-76
2023/09/25 01:08:10;;;;;;;1.20;1.10;;;;;;;11.34;nan;100104.91;5039879;28;20229;-76
2023/09/25 01:10:37;;;;;;;1.80;1.33;;;;;;;11.36;nan;100096.91;5038009;28;20694;-76
2023/09/25 01:13:03;;;;;;;1.95;1.20;;;;;;;11.37;nan;100094.19;5043250;28;20528;-76
2023/09/25 01:15:29;;;;;;;1.63;1.52;;;;;;;11.36;nan;100092.47;5036725;28;20212;-75
2023/09/25 01:17:55;;;;;;;2.17;1.33;;;;;;;11.39;nan;100079.16;5033793;28;20213;-76
2023/09/25 01:20:22;;;;;;;2.00;1.50;;;;;;;11.43;nan;100095.63;5046074;28;20254;-76
2023/09/25 01:22:48;;;;;;;2.13;1.40;;;;;;;11.42;nan;100101.78;5041205;28;20198;-75
2023/09/25 01:25:15;;;;;;;1.73;1.27;;;;;;;11.39;nan;100094.09;5042724;28;20262;-75
2023/09/25 01:27:42;;;;;;;2.25;1.50;;;;;;;11.35;nan;100089.97;5027186;28;20276;-76
2023/09/25 01:30:09;;;;;;;3.60;2.00;;;;;;;11.30;nan;100083.16;5038547;28;20221;-77
2023/09/25 01:32:37;;;;;;;5.72;1.70;;;;;;;11.29;nan;100086.75;5044524;28;20547;-76
2023/09/25 01:35:08;;;;;;;2.17;1.98;;;;;;;11.32;nan;100082.25;5040347;28;20198;-76
2023/09/25 01:37:34;;;;;;;1.95;1.60;;;;;;;11.30;nan;100085.81;5021653;28;20226;-76
2023/09/25 01:40:00;;;;;;;4.20;2.20;;;;;;;11.28;nan;100085.03;5021155;28;20213;-76
2023/09/25 01:42:26;;;;;;;1.80;1.63;;;;;;;11.25;nan;100084.38;5039207;28;20240;-76
2023/09/25 01:44:51;;;;;;;1.47;1.30;;;;;;;11.24;nan;100087.97;5037735;28;20210;-76
2023/09/25 01:47:17;;;;;;;1.80;1.30;;;;;;;11.23;nan;100076.59;5045746;28;20432;-76
2023/09/25 01:49:43;;;;;;;2.38;1.52;;;;;;;11.23;nan;100079.22;5038211;28;20228;-75
2023/09/25 01:52:09;;;;;;;1.90;1.80;;;;;;;11.24;nan;100074.81;5040568;28;20199;-76
2023/09/25 01:54:35;;;;;;;1.20;1.10;;;;;;;11.25;nan;100071.22;5019644;28;20436;-75
2023/09/25 01:57:01;;;;;;;2.77;1.30;;;;;;;11.28;nan;100076.31;5036671;28;20550;-76
2023/09/25 01:59:27;;;;;;;2.00;1.65;;;;;;;11.28;nan;100071.88;5035983;28;20212;-76
2023/09/25 02:01:53;;;;;;;2.23;1.73;;;;;;;11.30;nan;100066.56;5018728;28;20193;-75
2023/09/25 02:04:18;;;;;;;2.17;1.70;;;;;;;11.28;nan;100057.91;5036275;28;20475;-75
2023/09/25 02:06:45;;;;;;;1.93;1.83;;;;;;;11.25;nan;100064.19;5039058;28;20418;-76
2023/09/25 02:09:10;;;;;;;1.70;1.60;;;;;;;11.25;nan;100058.94;5037344;28;20567;-75
2023/09/25 02:11:36;;;;;;;2.60;1.53;;;;;;;11.25;nan;100058.94;5019608;28;20696;-76
2023/09/25 02:14:03;;;;;;;1.92;1.67;;;;;;;11.24;nan;100054.63;5036391;28;20599;-75
2023/09/25 02:16:29;;;;;;;2.13;1.60;;;;;;;11.21;nan;100052.16;5037260;28;20279;-76
2023/09/25 02:18:55;;;;;;;1.90;1.70;;;;;;;11.20;nan;100055.72;5023412;28;20249;-76
2023/09/25 02:21:20;;;;;;;2.47;1.50;;;;;;;11.16;nan;100062.09;5040103;28;20685;-76
2023/09/25 02:23:46;;;;;;;2.03;1.83;;;;;;;11.15;nan;100060.44;5033602;28;20475;-76
2023/09/25 02:26:12;;;;;;;1.93;1.73;;;;;;;11.14;nan;100061.34;5035629;28;20198;-76
2023/09/25 02:28:38;;;;;;;1.85;1.48;;;;;;;11.13;nan;100061.47;5023224;28;20513;-76
2023/09/25 02:31:03;;;;;;;3.23;1.70;;;;;;;11.08;nan;100057.28;5039109;28;20563;-76
2023/09/25 02:33:28;;;;;;;2.53;1.80;;;;;;;11.07;nan;100054.75;5036016;28;20690;-76
2023/09/25 02:36:05;;;;;;;3.47;2.00;;;;;;;11.06;nan;100055.69;5038149;28;20442;-76
2023/09/25 02:38:30;;;;;;;2.65;1.90;;;;;;;11.07;nan;100049.50;5022393;28;20401;-76
2023/09/25 02:40:56;;;;;;;2.10;1.90;;;;;;;11.08;nan;100061.72;5023188;28;20414;-76
2023/09/25 02:43:21;;;;;;;2.57;1.63;;;;;;;11.10;nan;100054.59;5040319;28;20239;-75
2023/09/25 02:45:46;;;;;;;1.70;1.60;;;;;;;11.12;nan;100051.84;5023455;28;20216;-75
2023/09/25 02:48:14;;;;;;;1.80;1.57;;;;;;;11.14;nan;100055.25;5020294;28;20725;-75
2023/09/25 02:50:40;;;;;;;2.60;1.63;;;;;;;11.13;nan;100053.56;5034682;28;20198;-76
2023/09/25 02:53:05;;;;;;;3.83;2.07;;;;;;;11.09;nan;100058.13;5039716;28;20677;-76
2023/09/25 02:55:30;;;;;;;2.40;2.20;;;;;;;11.05;nan;100059.28;5037721;28;20201;-76
2023/09/25 02:57:56;;;;;;;3.80;2.00;;;;;;;10.99;nan;100067.50;5040542;28;20579;-76
2023/09/25 03:00:21;;;;;;;2.40;1.73;;;;;;;10.79;nan;100056.34;5034904;28;20197;-75
2023/09/25 03:02:47;;;;;;;1.67;1.57;;;;;;;10.63;nan;100064.25;5016248;28;20433;-76
2023/09/25 03:05:14;;;;;;;2.07;1.93;;;;;;;10.48;nan;100057.25;5037957;28;20258;-76
2023/09/25 03:07:40;;;;;;;2.40;2.20;;;;;;;10.44;nan;100060.97;5021943;28;20267;-76
2023/09/25 03:10:06;;;;;;;2.03;1.83;;;;;;;10.40;nan;100062.94;5042657;28;20236;-75
2023/09/25 03:12:32;;;;;;;2.45;2.15;;;;;;;10.35;nan;100061.50;5031355;28;20633;-76
2023/09/25 03:15:00;;;;;;;2.33;1.47;;;;;;;10.25;nan;100061.13;5032974;28;20261;-76
2023/09/25 03:17:25;;;;;;;2.33;1.80;;;;;;;10.12;nan;100057.47;5027630;28;20693;-76
2023/09/25 03:19:52;;;;;;;3.63;1.90;;;;;;;9.98;nan;100074.81;5037109;28;20621;-75
2023/09/25 03:22:18;;;;;;;2.40;1.92;;;;;;;9.89;nan;100077.09;5039180;28;20209;-75
2023/09/25 03:24:44;;;;;;;2.80;2.33;;;;;;;9.84;nan;100076.47;5039109;28;20681;-76
2023/09/25 03:27:09;;;;;;;3.00;1.90;;;;;;;9.84;nan;100079.94;5041063;28;20189;-75
2023/09/25 03:29:35;;;;;;;5.13;2.40;;;;;;;9.87;nan;100082.41;5022376;28;20221;-75
2023/09/25 03:32:01;;;;;;;2.10;1.65;;;;;;;9.90;nan;100074.38;5031098;28;20208;-76
2023/09/25 03:34:28;;;;;;;3.38;1.90;;;;;;;9.90;nan;100071.75;5019031;28;20208;-75
2023/09/25 03:36:53;;;;;;;2.40;2.20;;;;;;;9.87;nan;100064.03;5030908;28;20193;-75
2023/09/25 03:39:19;;;;;;;3.80;1.93;;;;;;;9.85;nan;100068.50;5033768;28;20204;-76
2023/09/25 03:41:44;;;;;;;1.73;1.63;;;;;;;9.84;nan;100066.84;5019946;28;20209;-75
2023/09/25 03:44:09;;;;;;;1.80;1.70;;;;;;;9.87;nan;100058.78;5019667;28;20208;-76
2023/09/25 03:46:36;;;;;;;2.03;1.57;;;;;;;9.91;nan;100075.22;5040862;28;20194;-76
2023/09/25 03:49:05;;;;;;;2.20;1.50;;;;;;;9.89;nan;100080.56;5034310;28;20651;-76
2023/09/25 03:51:32;;;;;;;3.10;1.75;;;;;;;9.87;nan;100082.41;5041756;28;20737;-76
2023/09/25 03:53:58;;;;;;;2.70;1.85;;;;;;;9.81;nan;100081.91;5037617;28;20193;-76
2023/09/25 03:56:24;;;;;;;5.45;2.15;;;;;;;9.74;nan;100081.34;5017119;28;20205;-75
2023/09/25 03:58:49;;;;;;;3.87;1.73;;;;;;;9.68;nan;100081.69;5033726;28;20214;-74
2023/09/25 04:01:15;;;;;;;4.17;2.30;;;;;;;9.58;nan;100086.56;5041292;28;20208;-78
2023/09/25 04:03:40;;;;;;;2.40;2.20;;;;;;;9.49;nan;100098.38;5040666;28;20547;-79
2023/09/25 04:06:06;;;;;;;2.30;2.10;;;;;;;9.46;nan;100098.53;5039850;28;20184;-78
2023/09/25 04:08:31;;;;;;;3.00;1.70;;;;;;;9.47;nan;100100.22;5039889;28;20554;-78
2023/09/25 04:10:59;;;;;;;4.47;2.70;;;;;;;9.49;nan;100092.28;5039881;28;20209;-79
2023/09/25 04:13:26;;;;;;;1.60;1.40;;;;;;;9.53;nan;100102.53;5043873;28;20213;-78
2023/09/25 04:15:55;;;;;;;2.25;2.05;;;;;;;9.56;nan;100095.41;5040347;28;20198;-79
2023/09/25 04:18:21;;;;;;;2.90;2.33;;;;;;;9.56;nan;100103.28;5040679;28;20223;-78
2023/09/25 04:20:47;;;;;;;2.37;2.17;;;;;;;9.53;nan;100109.53;5046180;28;20808;-79
2023/09/25 04:23:13;;;;;;;1.70;1.60;;;;;;;9.53;nan;100109.53;5042063;28;20247;-78
2023/09/25 04:25:39;;;;;;;2.95;2.03;;;;;;;9.51;nan;100109.63;5043032;28;20206;-79
2023/09/25 04:28:05;;;;;;;2.60;2.40;;;;;;;9.55;nan;100112.09;5041979;28;20197;-79
2023/09/25 04:30:31;;;;;;;3.38;1.65;;;;;;;9.57;nan;100105.84;5049371;28;20681;-78
2023/09/25 04:32:57;;;;;;;2.07;1.83;;;;;;;9.61;nan;100103.91;5045636;28;20284;-79
2023/09/25 04:35:24;;;;;;;2.47;2.13;;;;;;;9.66;nan;100105.34;5047814;28;20444;-79
2023/09/25 04:37:50;;;;;;;3.03;2.30;;;;;;;9.71;nan;100110.38;5045650;28;20774;-79
2023/09/25 04:42:46;;;;;;;2.03;1.73;;;;;;;9.77;nan;100110.03;5046460;28;20213;-79
2023/09/25 04:45:13;;;;;;;2.55;1.60;;;;;;;9.77;nan;100096.94;5048151;28;20193;-79
2023/09/25 04:47:42;;;;;;;2.60;1.63;;;;;;;9.70;nan;100100.81;5045913;28;20190;-79
2023/09/25 04:50:08;;;;;;;1.60;1.50;;;;;;;9.61;nan;100102.13;5046054;28;20310;-79
2023/09/25 04:52:38;;;;;;;1.60;1.50;;;;;;;9.52;nan;100094.75;5040007;28;20605;-79
2023/09/25 04:55:05;;;;;;;2.30;2.10;;;;;;;9.48;nan;100098.47;5050012;28;20290;-78
2023/09/25 04:57:31;;;;;;;2.67;2.40;;;;;;;9.45;nan;100102.09;5046981;28;20201;-78
2023/09/25 04:59:56;;;;;;;2.00;1.80;;;;;;;9.44;nan;100118.72;5043363;28;21014;-78
2023/09/25 05:02:22;;;;;;;2.43;1.90;;;;;;;9.42;nan;100117.94;5047717;28;20194;-78
2023/09/25 05:04:47;;;;;;;2.33;1.87;;;;;;;9.38;nan;100118.22;5048561;28;20193;-79
2023/09/25 05:07:12;;;;;;;1.97;1.53;;;;;;;9.33;nan;100123.69;5051062;28;20249;-78
2023/09/25 05:09:41;;;;;;;10.00;1.77;;;;;;;9.26;nan;100124.91;5047540;28;20209;-78
2023/09/25 05:12:06;;;;;;;4.70;1.52;;;;;;;9.24;nan;100126.78;5044421;28;20221;-78
2023/09/25 05:14:32;;;;;;;1.90;1.80;;;;;;;9.21;nan;100121.69;5040813;28;20584;-79
2023/09/25 05:16:59;;;;;;;2.17;1.97;;;;;;;9.23;nan;100125.06;5042864;28;20198;-78
2023/09/25 05:19:24;;;;;;;5.25;2.88;;;;;;;9.22;nan;100137.31;5048262;28;20200;-78
2023/09/25 05:21:50;;;;;;;3.37;1.70;;;;;;;9.23;nan;100148.66;5047324;28;20253;-78
2023/09/25 05:24:15;;;;;;;2.57;1.83;;;;;;;9.22;nan;100144.34;5045822;28;20194;-79
2023/09/25 05:26:40;;;;;;;6.13;2.17;;;;;;;9.26;nan;100143.25;5045799;28;20189;-78
2023/09/25 05:29:06;;;;;;;2.20;1.53;;;;;;;9.24;nan;100137.25;5040913;28;20660;-79
2023/09/25 05:31:32;;;;;;;1.13;1.03;;;;;;;9.13;nan;100140.41;5047046;28;20299;-78
2023/09/25 05:33:57;;;;;;;1.20;1.10;;;;;;;8.97;nan;100142.91;5044849;28;20347;-78
2023/09/25 05:36:23;;;;;;;1.80;1.50;;;;;;;8.82;nan;100148.88;5043323;28;20499;-78
2023/09/25 05:38:49;;;;;;;1.27;1.17;;;;;;;8.70;nan;100150.31;5044567;28;20490;-78
2023/09/25 05:41:15;;;;;;;2.20;1.20;;;;;;;8.62;nan;100148.06;5043907;28;20206;-78
2023/09/25 05:43:40;;;;;;;1.50;1.40;;;;;;;8.61;nan;100149.00;5041329;28;20210;-79
2023/09/25 05:46:06;;;;;;;3.87;1.40;;;;;;;8.68;nan;100151.31;5044707;28;20408;-78
2023/09/25 05:48:34;;;;;;;1.83;1.07;;;;;;;8.73;nan;100149.34;5041891;28;20690;-78
2023/09/25 05:50:59;;;;;;;1.73;1.30;;;;;;;8.76;nan;100149.19;5045497;28;20213;-78
2023/09/25 05:53:25;;;;;;;1.43;1.30;;;;;;;8.84;nan;100147.91;5042706;28;20205;-79
2023/09/25 05:55:51;;;;;;;1.50;1.40;;;;;;;8.94;nan;100148.31;5044703;28;20197;-79
2023/09/25 05:58:17;;;;;;;2.10;1.75;;;;;;;9.03;nan;100149.63;5049830;28;20471;-79
2023/09/25 06:00:46;;;;;;;2.83;1.27;;;;;;;9.07;nan;100157.28;5045271;28;20209;-79
2023/09/25 06:03:12;;;;;;;2.55;1.90;;;;;;;9.09;nan;100157.19;5048107;28;20193;-79
2023/09/25 06:05:38;;;;;;;1.53;1.40;;;;;;;9.12;nan;100159.66;5046694;28;20655;-79
2023/09/25 06:08:05;;;;;;;2.10;1.73;;;;;;;9.18;nan;100142.78;5046676;28;20446;-79
2023/09/25 06:10:34;;;;;;;1.92;1.75;;;;;;;9.27;nan;100144.97;5046020;28;21058;-78
2023/09/25 06:13:02;;;;;;;2.08;1.90;;;;;;;9.38;nan;100147.88;5039246;28;20225;-78
2023/09/25 06:15:30;;;;;;;2.33;1.50;;;;;;;9.48;nan;100149.13;5042572;28;20190;-78
2023/09/25 06:17:58;;;;;;;1.70;1.60;;;;;;;9.60;nan;100152.06;5041409;28;20305;-78
2023/09/25 06:20:26;;;;;;;4.07;1.95;;;;;;;9.70;nan;100155.91;5042252;28;20206;-78
2023/09/25 06:22:51;;;;;;;2.28;2.10;;;;;;;9.79;nan;100158.03;5044254;28;20194;-78
2023/09/25 06:25:17;;;;;;;3.40;2.27;;;;;;;9.87;nan;100153.25;5039855;28;20519;-78
2023/09/25 06:27:46;;;;;;;2.80;2.60;;;;;;;9.94;nan;100153.81;5040198;28;20194;-79
2023/09/25 06:30:13;;;;;;;2.60;2.00;;;;;;;10.02;nan;100156.00;5041552;28;20221;-78
2023/09/25 06:32:38;;;;;;;2.63;1.92;;;;;;;10.08;nan;100155.69;5042154;28;20202;-77
2023/09/25 06:35:06;;;;;;;2.50;1.93;;;;;;;10.14;nan;100160.59;5043224;28;20255;-78
2023/09/25 06:37:31;;;;;;;5.50;2.40;;;;;;;10.23;nan;100159.25;5044785;28;20220;-79
2023/09/25 06:39:57;;;;;;;2.60;1.80;;;;;;;10.30;nan;100151.00;5041994;28;20202;-79
2023/09/25 06:42:22;;;;;;;3.80;2.47;;;;;;;10.38;nan;100155.84;5044428;28;20668;-78
2023/09/25 06:44:48;;;;;;;3.43;2.50;;;;;;;10.48;nan;100153.59;5035996;28;20239;-78
2023/09/25 06:47:14;;;;;;;3.73;2.30;;;;;;;10.55;nan;100149.69;5041475;28;20289;-78
2023/09/25 06:49:40;;;;;;;5.15;2.13;;;;;;;10.66;nan;100155.19;5039300;28;20201;-78
2023/09/25 06:52:06;;;;;;;2.07;1.87;;;;;;;10.77;nan;100151.97;5045625;28;20463;-78
2023/09/25 06:54:32;;;;;;;3.10;2.80;;;;;;;10.87;nan;100153.16;5042553;28;20296;-78
2023/09/25 06:56:58;;;;;;;2.40;2.00;;;;;;;10.96;nan;100154.41;5038570;28;20835;-78
2023/09/25 06:59:23;;;;;;;4.40;1.87;;;;;;;11.03;nan;100153.13;5044410;28;20197;-78
2023/09/25 07:01:49;;;;;;;2.23;2.00;;;;;;;11.10;nan;100149.25;5044576;28;20582;-78
2023/09/25 07:04:14;;;;;;;2.90;2.23;;;;;;;11.18;nan;100138.25;5044910;28;20279;-78
2023/09/25 07:06:39;;;;;;;4.30;2.77;;;;;;;11.24;nan;100146.66;5041224;28;20712;-78
2023/09/25 07:09:08;;;;;;;2.03;1.80;;;;;;;11.34;nan;100146.09;5040756;28;20296;-79
2023/09/25 07:11:35;;;;;;;2.63;2.10;;;;;;;11.43;nan;100141.16;5040239;28;20233;-78
2023/09/25 07:14:01;;;;;;;4.30;1.95;;;;;;;11.50;nan;100139.00;5040350;28;20198;-78
2023/09/25 07:16:26;;;;;;;2.40;2.00;;;;;;;11.57;nan;100127.19;5040965;28;20212;-78
2023/09/25 07:18:51;;;;;;;2.00;1.70;;;;;;;11.66;nan;100131.91;5035956;28;20221;-78
2023/09/25 07:21:17;;;;;;;2.23;1.80;;;;;;;11.76;nan;100126.94;5041609;28;20752;-78
2023/09/25 07:23:42;;;;;;;3.30;2.30;;;;;;;11.86;nan;100140.44;5045330;28;20193;-78
2023/09/25 07:26:09;;;;;;;1.80;1.70;;;;;;;11.97;nan;100137.16;5043871;28;20196;-78
2023/09/25 07:28:35;;;;;;;2.10;1.77;;;;;;;12.06;nan;100139.22;5043683;28;20196;-78
2023/09/25 07:31:00;;;;;;;3.93;2.00;;;;;;;12.13;nan;100136.13;5042380;28;20308;-78
2023/09/25 07:33:29;;;;;;;1.80;1.57;;;;;;;12.18;nan;100136.69;5046217;28;20447;-79
2023/09/25 07:35:56;;;;;;;6.30;2.33;;;;;;;12.29;nan;100140.44;5041974;28;20237;-78
2023/09/25 07:38:22;;;;;;;2.17;1.98;;;;;;;12.36;nan;100141.72;5046334;28;20207;-78
2023/09/25 07:40:48;;;;;;;3.55;2.47;;;;;;;12.43;nan;100136.94;5040563;28;20201;-78
2023/09/25 07:43:19;;;;;;;7.13;2.47;;;;;;;12.52;nan;100142.47;5046890;28;20193;-78
2023/09/25 07:45:47;;;;;;;3.25;2.00;;;;;;;12.63;nan;100139.16;5038661;28;20210;-78
2023/09/25 07:48:13;;;;;;;2.15;1.70;;;;;;;13.02;nan;100143.66;5043179;28;20197;-78
2023/09/25 07:50:40;;;;;;;1.88;1.67;;;;;;;13.95;nan;100136.53;5037339;28;20414;-79
2023/09/25 07:53:05;;;;;;;3.90;1.83;;;;;;;15.14;nan;100139.53;5040251;28;20872;-78
2023/09/25 07:55:31;;;;;;;3.07;1.77;;;;;;;16.33;nan;100131.34;5045135;28;20194;-78
2023/09/25 07:57:56;;;;;;;2.63;1.73;;;;;;;17.37;nan;100130.84;5042765;28;20217;-78
2023/09/25 08:00:24;;;;;;;1.83;1.57;;;;;;;18.24;nan;100133.19;5044117;28;20214;-79
2023/09/25 08:02:51;;;;;;;1.58;1.20;;;;;;;19.02;nan;100134.25;5045411;28;20771;-79
2023/09/25 08:05:18;;;;;;;1.27;1.17;;;;;;;19.75;nan;100135.63;5045186;28;20207;-79
2023/09/25 08:07:45;;;;;;;1.37;1.27;;;;;;;20.30;nan;100138.38;5048308;28;20205;-79
2023/09/25 08:10:11;;;;;;;1.80;1.37;;;;;;;20.74;nan;100138.63;5043398;28;20462;-79
2023/09/25 08:12:36;;;;;;;3.63;1.70;;;;;;;21.03;nan;100134.88;5043940;28;20443;-79
2023/09/25 08:15:02;;;;;;;2.00;1.20;;;;;;;21.21;nan;100146.41;5041811;28;20456;-79
2023/09/25 08:17:28;;;;;;;1.50;1.40;;;;;;;21.48;nan;100142.00;5043291;28;20381;-79
2023/09/25 08:19:54;;;;;;;2.10;1.50;;;;;;;21.90;nan;100135.94;5043676;28;20206;-79
2023/09/25 08:22:20;;;;;;;1.50;1.17;;;;;;;22.43;nan;100133.06;5043262;28;20735;-79
2023/09/25 08:24:47;;;;;;;2.83;1.90;;;;;;;23.02;nan;100126.91;5040753;28;20420;-79
2023/09/25 08:27:13;;;;;;;1.87;1.10;;;;;;;23.42;nan;100129.59;5047958;28;20414;-79
2023/09/25 08:29:38;;;;;;;2.30;1.43;;;;;;;23.85;nan;100124.03;5044463;28;20472;-79
2023/09/25 08:32:03;;;;;;;2.20;1.50;;;;;;;24.28;nan;100127.28;5041179;28;20616;-79
2023/09/25 08:34:29;;;;;;;2.20;1.23;;;;;;;24.66;nan;100127.47;5042955;28;20265;-79
2023/09/25 08:36:54;;;;;;;2.37;1.57;;;;;;;24.87;nan;100118.75;5046784;28;20206;-79
2023/09/25 08:39:20;;;;;;;2.60;1.37;;;;;;;24.78;nan;100126.03;5049663;28;20362;-79
2023/09/25 08:41:46;;;;;;;1.43;1.20;;;;;;;24.77;nan;100119.00;5042448;28;20252;-79
2023/09/25 08:44:14;;;;;;;1.90;1.43;;;;;;;24.91;nan;100125.47;5044363;28;20198;-79
2023/09/25 08:46:40;;;;;;;1.43;1.17;;;;;;;25.12;nan;100127.50;5040677;28;20391;-79
2023/09/25 08:49:06;;;;;;;1.40;1.30;;;;;;;25.23;nan;100124.41;5045812;28;20490;-79
2023/09/25 08:51:38;;;;;;;2.13;1.27;;;;;;;25.43;nan;100116.69;5039488;28;20438;-79
2023/09/25 08:54:04;;;;;;;1.33;1.23;;;;;;;25.39;nan;100120.75;5040728;28;20611;-79
2023/09/25 08:56:33;;;;;;;2.87;1.43;;;;;;;25.28;nan;100121.19;5044595;28;20457;-80
2023/09/25 08:59:05;;;;;;;1.37;1.27;;;;;;;24.93;nan;100121.59;5041120;28;20229;-78
2023/09/25 09:01:31;;;;;;;1.90;1.30;;;;;;;24.73;nan;100121.22;5047365;28;20501;-78
2023/09/25 09:03:57;;;;;;;2.50;1.23;;;;;;;24.48;nan;100116.97;5042062;28;20500;-78
2023/09/25 09:06:22;;;;;;;1.90;1.40;;;;;;;24.16;nan;100128.66;5037275;28;20909;-79
2023/09/25 09:08:49;;;;;;;1.97;1.70;;;;;;;23.82;nan;100124.41;5038810;28;20287;-79
2023/09/25 09:11:15;;;;;;;1.60;1.27;;;;;;;23.48;nan;100128.06;5046422;28;20200;-78
2023/09/25 09:13:45;;;;;;;1.23;1.03;;;;;;;23.05;nan;100129.25;5047387;28;21463;-79
2023/09/25 09:16:15;;;;;;;2.10;1.50;;;;;;;22.72;nan;100138.00;5044808;28;21186;-79
2023/09/25 09:18:40;;;;;;;2.37;1.43;;;;;;;22.51;nan;100132.25;5046147;28;20495;-79
2023/09/25 09:21:08;;;;;;;1.77;1.17;;;;;;;22.25;nan;100130.50;5047904;28;20496;-79
2023/09/25 09:23:42;;;;;;;1.87;1.10;;;;;;;21.92;nan;100132.09;5052342;28;20258;-79
2023/09/25 09:26:12;;;;;;;1.50;1.40;;;;;;;21.54;nan;100136.03;5051892;28;20482;-79
2023/09/25 09:28:37;;;;;;;2.23;1.60;;;;;;;21.43;nan;100124.59;5051419;28;20474;-79
2023/09/25 09:31:06;;;;;;;1.30;1.20;;;;;;;21.28;nan;100128.78;5044683;28;21036;-79
2023/09/25 09:33:31;;;;;;;2.03;1.40;;;;;;;21.06;nan;100126.56;5052983;28;20207;-79
2023/09/25 09:35:57;;;;;;;2.30;1.23;;;;;;;20.94;nan;100123.28;5046522;28;20452;-79
2023/09/25 09:38:23;;;;;;;2.73;1.57;;;;;;;20.95;nan;100130.31;5049788;28;20211;-79
2023/09/25 09:40:49;;;;;;;1.33;1.00;;;;;;;20.96;nan;100121.31;5048787;28;20251;-79
2023/09/25 09:43:16;;;;;;;2.23;1.53;;;;;;;21.04;nan;100123.22;5049492;28;20194;-79
2023/09/25 09:45:48;;;;;;;1.90;1.70;;;;;;;21.12;nan;100123.31;5044014;28;20686;-79
2023/09/25 09:48:19;;;;;;;2.60;1.53;;;;;;;21.02;nan;100120.69;5044801;28;20448;-79
2023/09/25 09:50:48;;;;;;;2.23;1.27;;;;;;;20.95;nan;100115.16;5049167;28;20509;-79
2023/09/25 09:53:17;;;;;;;2.87;1.23;;;;;;;21.02;nan;100120.69;5044805;28;20430;-78
2023/09/25 09:55:44;;;;;;;1.77;1.23;;;;;;;21.10;nan;100119.94;5040653;28;20499;-79
2023/09/25 09:58:11;;;;;;;2.00;1.13;;;;;;;21.14;nan;100122.16;5043945;28;20448;-79
2023/09/25 10:00:41;;;;;;;1.67;1.40;;;;;;;21.10;nan;100106.59;5042344;28;20488;-79
2023/09/25 10:03:10;;;;;;;1.50;1.30;;;;;;;21.17;nan;100103.16;5041840;28;20462;-79
2023/09/25 10:05:47;;;;;;;1.65;1.55;;;;;;;21.28;nan;100107.41;5042968;28;20563;-79
2023/09/25 10:08:13;;;;;;;1.20;1.10;;;;;;;21.28;nan;100104.75;5041357;28;20627;-79
2023/09/25 10:10:42;;;;;;;3.53;1.20;;;;;;;21.15;nan;100107.81;5040854;28;21052;-79
2023/09/25 10:13:22;;;;;;;1.20;1.07;;;;;;;21.09;nan;100104.88;5042250;28;20680;-79
2023/09/25 10:15:58;;;;;;;1.17;1.07;;;;;;;21.15;nan;100098.94;5038631;28;20409;-79
2023/09/25 10:18:29;;;;;;;1.80;1.20;;;;;;;21.19;nan;100092.28;5043656;28;20486;-78
2023/09/25 10:21:10;;;;;;;1.80;1.30;;;;;;;21.26;nan;100095.19;5040077;28;20807;-79
2023/09/25 10:23:40;;;;;;;2.30;1.37;;;;;;;21.33;nan;100094.44;5043936;28;20696;-79
2023/09/25 10:26:20;;;;;;;1.73;1.20;;;;;;;21.33;nan;100090.91;5044790;28;20442;-79
2023/09/25 10:29:11;;;;;;;2.63;1.20;;;;;;;21.28;nan;100088.72;5036120;28;20412;-78
2023/09/25 10:31:37;;;;;;;1.40;1.10;;;;;;;21.31;nan;100082.22;5038737;28;20451;-79
2023/09/25 10:34:07;;;;;;;1.30;1.20;;;;;;;21.42;nan;100085.50;5044161;28;23570;-78
2023/09/25 10:36:37;;;;;;;1.40;1.20;;;;;;;21.48;nan;100088.56;5049809;28;20933;-79
2023/09/25 10:39:13;;;;;;;2.47;1.50;;;;;;;21.44;nan;100082.66;5039963;28;20568;-79
2023/09/25 10:41:39;;;;;;;1.93;1.40;;;;;;;21.50;nan;100082.06;5040030;28;20460;-79
2023/09/25 10:44:05;;;;;;;1.30;0.97;;;;;;;21.61;nan;100084.47;5043396;28;20404;-79
2023/09/25 10:46:30;;;;;;;2.77;1.30;;;;;;;21.77;nan;100078.38;5038861;28;20348;-79
2023/09/25 10:48:56;;;;;;;2.03;1.37;;;;;;;21.95;nan;100080.13;5037097;28;20526;-79
2023/09/25 10:51:22;;;;;;;1.70;1.23;;;;;;;22.08;nan;100085.88;5039888;28;20212;-79
2023/09/25 10:53:47;;;;;;;2.10;1.30;;;;;;;22.18;nan;100083.09;5040929;28;20451;-79
2023/09/25 10:56:14;;;;;;;1.23;1.00;;;;;;;22.21;nan;100080.97;5048441;28;20208;-79
2023/09/25 10:58:40;;;;;;;1.47;1.20;;;;;;;22.24;nan;100085.16;5037431;28;20774;-79
2023/09/25 11:01:05;;;;;;;1.27;1.10;;;;;;;22.25;nan;100081.47;5044309;28;20429;-79
2023/09/25 11:03:34;;;;;;;2.27;1.20;;;;;;;22.12;nan;100076.56;5046149;28;20694;-79
2023/09/25 11:05:59;;;;;;;1.83;1.20;;;;;;;21.92;nan;100072.44;5036223;28;20673;-79
2023/09/25 11:08:26;;;;;;;1.53;1.37;;;;;;;21.42;nan;100064.13;5042017;28;20454;-79
2023/09/25 11:10:51;;;;;;;2.37;1.57;;;;;;;21.26;nan;100060.47;5042093;28;20630;-79
2023/09/25 11:13:17;;;;;;;1.63;1.00;;;;;;;21.26;nan;100057.81;5037659;28;20545;-79
2023/09/25 11:15:44;;;;;;;1.13;0.97;;;;;;;21.32;nan;100057.16;5036189;28;20595;-79
2023/09/25 11:18:10;;;;;;;1.93;1.50;;;;;;;21.39;nan;100064.44;5040608;28;20502;-79
2023/09/25 11:20:37;;;;;;;1.60;0.97;;;;;;;21.46;nan;100066.47;5038250;28;20532;-79
2023/09/25 11:23:10;;;;;;;1.93;1.00;;;;;;;21.51;nan;100064.19;5035685;28;20506;-79
2023/09/25 11:25:46;;;;;;;3.13;1.03;;;;;;;21.54;nan;100066.53;5021106;28;20420;-80
2023/09/25 11:28:21;;;;;;;1.57;1.17;;;;;;;21.49;nan;100064.31;5041305;28;20442;-79
2023/09/25 11:30:47;;;;;;;1.10;0.87;;;;;;;21.48;nan;100061.81;5034681;28;20458;-79
2023/09/25 11:33:21;;;;;;;1.50;1.00;;;;;;;21.51;nan;100066.84;5034245;28;20428;-79
2023/09/25 11:35:49;;;;;;;1.93;1.23;;;;;;;21.57;nan;100072.41;5038738;28;20529;-79
2023/09/25 11:38:24;;;;;;;2.87;1.30;;;;;;;21.62;nan;100061.25;5036863;28;20446;-79
2023/09/25 11:40:52;;;;;;;1.47;1.37;;;;;;;21.67;nan;100058.94;5039140;28;20425;-79
2023/09/25 11:43:18;;;;;;;1.43;1.33;;;;;;;21.69;nan;100048.94;5034377;28;21010;-79